Terminal Aerodrome Forecast
Issued by NWS

Home | Current Version | Previous Version | Graphics & Text | Print | Product List | Glossary On
Versions: 1 2 3 4 5 6 7 8 9 10 11 12 13 14 15 16 17 18 19 20 21
989
FTUS43 KMPX 221004 AAA
TAFAXN
TAF AMD
KAXN 221004Z 2210/2306 05011KT P6SM OVC010
     FM221600 05010KT P6SM OVC020
     FM222200 06010KT P6SM VCSH OVC035=

USA.gov is the U.S. government's official web portal to all federal, state and local government web resources and services.